Time;durP1;ratioP1;P1;durP2;ratioP2;P2;SDS_P1;SDS_P2;PMS_P1;PMS_P2;Temp;Humidity;BMP_temperature;BMP_pressure;BME280_temperature;BME280_humidity;BME280_pressure;Samples;Min_cycle;Max_cycle;Signal;HPM_P1;HPM_P2
2022/03/05 00:01:56;;;;;;;7.93;4.88;;;0.10;99.90;;;;;;4868234;29;20044;-77
2022/03/05 00:04:22;;;;;;;7.03;5.22;;;0.10;99.90;;;;;;4858406;29;20057;-77
2022/03/05 00:06:49;;;;;;;8.52;5.53;;;0.10;99.90;;;;;;4859012;29;20041;-77
2022/03/05 00:09:17;;;;;;;10.43;5.53;;;0.00;99.90;;;;;;4856185;29;20088;-77
2022/03/05 00:11:46;;;;;;;8.70;5.78;;;0.10;99.90;;;;;;4871366;29;20465;-78
2022/03/05 00:14:12;;;;;;;8.57;5.20;;;0.10;99.90;;;;;;4873157;29;20104;-78
2022/03/05 00:16:38;;;;;;;8.25;5.45;;;0.00;99.90;;;;;;4855726;29;20045;-78
2022/03/05 00:19:04;;;;;;;8.73;5.40;;;0.00;99.90;;;;;;4846023;29;20055;-78
2022/03/05 00:21:30;;;;;;;6.72;4.80;;;0.00;99.90;;;;;;4873675;29;20492;-78
2022/03/05 00:23:56;;;;;;;5.72;3.53;;;-0.10;99.90;;;;;;4858918;29;20044;-77
2022/03/05 00:26:22;;;;;;;8.23;5.07;;;-0.10;99.90;;;;;;4863975;29;20037;-77
2022/03/05 00:28:48;;;;;;;8.77;5.85;;;-0.10;99.90;;;;;;4870575;29;20053;-78
2022/03/05 00:31:13;;;;;;;7.38;5.00;;;-0.10;99.90;;;;;;4873455;29;20585;-77
2022/03/05 00:33:39;;;;;;;8.27;4.95;;;-0.10;99.90;;;;;;4874592;29;20080;-77
2022/03/05 00:36:06;;;;;;;9.70;5.65;;;-0.10;99.90;;;;;;4863109;29;20053;-78
2022/03/05 00:38:32;;;;;;;8.75;5.63;;;-0.10;99.90;;;;;;4859723;29;20174;-77
2022/03/05 00:40:57;;;;;;;8.18;4.95;;;-0.10;99.90;;;;;;4848498;29;20084;-77
2022/03/05 00:43:23;;;;;;;7.60;4.97;;;-0.10;99.90;;;;;;4863741;29;20041;-77
2022/03/05 00:45:49;;;;;;;8.48;5.35;;;-0.20;99.90;;;;;;4836281;29;20049;-77
2022/03/05 00:48:14;;;;;;;8.88;5.93;;;-0.20;99.90;;;;;;4845609;29;20486;-77
2022/03/05 00:50:40;;;;;;;8.82;5.60;;;-0.10;99.90;;;;;;4861983;29;20044;-77
2022/03/05 00:53:06;;;;;;;9.50;5.90;;;-0.10;99.90;;;;;;4860808;29;20045;-78
2022/03/05 00:55:32;;;;;;;8.65;5.70;;;-0.10;99.90;;;;;;4860135;29;20049;-77
2022/03/05 00:57:58;;;;;;;9.20;6.03;;;-0.20;99.90;;;;;;4859270;29;20068;-78
2022/03/05 01:00:23;;;;;;;8.50;5.45;;;-0.10;99.90;;;;;;4861103;29;20501;-78
2022/03/05 01:02:49;;;;;;;10.45;5.63;;;-0.20;99.90;;;;;;4846708;29;20099;-78
2022/03/05 01:05:15;;;;;;;10.10;6.00;;;-0.20;99.90;;;;;;4865847;29;20040;-78
2022/03/05 01:07:40;;;;;;;10.35;6.20;;;-0.20;99.90;;;;;;4864267;29;20403;-78
2022/03/05 01:10:07;;;;;;;9.25;5.45;;;-0.20;99.90;;;;;;4859191;29;20037;-78
2022/03/05 01:12:34;;;;;;;10.00;5.72;;;-0.20;99.90;;;;;;4856316;29;20109;-77
2022/03/05 01:15:00;;;;;;;9.80;5.80;;;-0.20;99.90;;;;;;4855005;29;20132;-77
2022/03/05 01:17:26;;;;;;;13.85;6.03;;;-0.20;99.90;;;;;;4860682;29;20128;-77
2022/03/05 01:19:52;;;;;;;11.70;6.53;;;-0.20;99.90;;;;;;4845319;29;20057;-77
2022/03/05 01:22:17;;;;;;;10.88;6.80;;;-0.20;99.90;;;;;;4862083;29;20098;-78
2022/03/05 01:24:43;;;;;;;11.85;6.78;;;-0.20;99.90;;;;;;4859283;29;20472;-78
2022/03/05 01:27:09;;;;;;;8.95;6.50;;;-0.20;99.90;;;;;;4860753;29;20405;-78
2022/03/05 01:29:35;;;;;;;8.60;5.22;;;-0.20;99.90;;;;;;4846343;29;20048;-78
2022/03/05 01:32:00;;;;;;;10.98;6.55;;;-0.20;99.90;;;;;;4858840;29;20136;-78
2022/03/05 01:34:26;;;;;;;9.48;6.28;;;-0.20;99.90;;;;;;4864493;29;20497;-78
2022/03/05 01:36:52;;;;;;;10.00;6.57;;;-0.20;99.90;;;;;;4862009;29;20077;-78
2022/03/05 01:39:18;;;;;;;11.23;6.78;;;-0.20;99.90;;;;;;4877290;29;20528;-78
2022/03/05 01:41:46;;;;;;;11.27;6.85;;;-0.30;99.90;;;;;;4861525;29;20053;-78
2022/03/05 01:44:12;;;;;;;12.93;8.38;;;-0.30;99.90;;;;;;4883348;29;20048;-78
2022/03/05 01:46:39;;;;;;;14.85;8.45;;;-0.30;99.90;;;;;;4876833;29;20412;-78
2022/03/05 01:49:10;;;;;;;16.17;9.10;;;-0.20;99.90;;;;;;4885568;29;20159;-78
2022/03/05 01:51:36;;;;;;;21.05;11.10;;;-0.30;99.90;;;;;;4876077;29;20052;-77
2022/03/05 01:54:02;;;;;;;22.90;11.77;;;-0.20;99.90;;;;;;4863240;29;20401;-77
2022/03/05 01:56:32;;;;;;;18.75;10.50;;;-0.20;99.90;;;;;;4878829;29;20049;-78
2022/03/05 01:58:59;;;;;;;17.00;9.73;;;-0.20;99.90;;;;;;4872745;29;20080;-77
2022/03/05 02:01:26;;;;;;;13.38;8.70;;;-0.30;99.90;;;;;;4883817;29;20057;-78
2022/03/05 02:03:53;;;;;;;11.57;7.32;;;-0.30;99.90;;;;;;4877505;29;20496;-78
2022/03/05 02:06:20;;;;;;;12.02;7.65;;;-0.30;99.90;;;;;;4859833;29;20056;-78
2022/03/05 02:08:46;;;;;;;;;;;-0.40;99.90;;;;;;4877861;29;20029;-78
2022/03/05 02:11:11;;;;;;;13.25;7.68;;;-0.30;99.90;;;;;;4890700;29;20451;-78
2022/03/05 02:13:37;;;;;;;10.65;6.78;;;-0.30;99.90;;;;;;4844694;29;20041;-78
2022/03/05 02:16:03;;;;;;;10.77;6.63;;;-0.40;99.90;;;;;;4876621;29;20514;-78
2022/03/05 02:18:29;;;;;;;11.15;6.97;;;-0.40;99.90;;;;;;4860958;29;20127;-78
2022/03/05 02:20:55;;;;;;;12.15;7.30;;;-0.30;99.90;;;;;;4878919;29;20044;-78
2022/03/05 02:23:22;;;;;;;10.80;6.57;;;-0.40;99.90;;;;;;4871619;29;20041;-77
2022/03/05 02:25:54;;;;;;;;;;;-0.40;99.90;;;;;;4884841;29;20124;-77
2022/03/05 02:28:22;;;;;;;10.45;6.22;;;-0.30;99.90;;;;;;4876383;29;21551;-79
2022/03/05 02:30:48;;;;;;;11.27;6.57;;;-0.40;99.90;;;;;;4860998;29;20049;-79
2022/03/05 02:33:14;;;;;;;9.80;5.88;;;-0.40;99.90;;;;;;4858008;29;20037;-77
2022/03/05 02:35:41;;;;;;;9.15;5.80;;;-0.40;99.90;;;;;;4871426;29;20065;-78
2022/03/05 02:38:06;;;;;;;11.25;6.55;;;-0.40;99.90;;;;;;4890789;29;20104;-77
2022/03/05 02:40:33;;;;;;;11.77;6.63;;;-0.40;99.90;;;;;;4876435;29;20049;-77
2022/03/05 02:42:59;;;;;;;10.10;6.03;;;-0.40;99.90;;;;;;4860799;29;20053;-77
2022/03/05 02:45:25;;;;;;;9.73;6.40;;;-0.40;99.90;;;;;;4875429;29;20037;-77
2022/03/05 02:47:51;;;;;;;8.57;5.57;;;-0.40;99.90;;;;;;4858327;29;20108;-78
2022/03/05 02:50:16;;;;;;;9.35;5.45;;;-0.40;99.90;;;;;;4860321;29;20257;-78
2022/03/05 02:52:42;;;;;;;8.87;5.90;;;-0.40;99.90;;;;;;4876144;29;20063;-78
2022/03/05 02:55:08;;;;;;;8.13;5.63;;;-0.40;99.90;;;;;;4859958;29;20853;-77
2022/03/05 02:57:34;;;;;;;9.25;5.68;;;-0.50;99.90;;;;;;4875773;29;20505;-77
2022/03/05 02:59:59;;;;;;;8.63;6.20;;;-0.50;99.90;;;;;;4873745;29;20168;-77
2022/03/05 03:02:26;;;;;;;10.95;6.50;;;-0.50;99.90;;;;;;4860314;29;20166;-77
2022/03/05 03:04:52;;;;;;;9.30;5.63;;;-0.40;99.90;;;;;;4875241;29;20059;-78
2022/03/05 03:07:18;;;;;;;7.68;5.25;;;-0.50;99.90;;;;;;4859316;29;20037;-78
2022/03/05 03:09:43;;;;;;;8.50;5.60;;;-0.50;99.90;;;;;;4874553;29;20053;-78
2022/03/05 03:12:09;;;;;;;8.95;5.57;;;-0.50;99.90;;;;;;4874995;29;20045;-78
2022/03/05 03:14:35;;;;;;;7.60;4.78;;;-0.50;99.90;;;;;;4859978;29;20428;-78
2022/03/05 03:17:01;;;;;;;8.13;5.38;;;-0.60;99.90;;;;;;4874858;29;20041;-78
2022/03/05 03:19:26;;;;;;;6.97;4.82;;;-0.60;99.90;;;;;;4875316;29;20049;-78
2022/03/05 03:21:52;;;;;;;6.75;4.30;;;-0.60;99.90;;;;;;4875600;29;20150;-78
2022/03/05 03:24:18;;;;;;;6.35;4.13;;;-0.70;99.90;;;;;;4875353;29;20519;-78
2022/03/05 03:26:45;;;;;;;6.57;3.83;;;-0.80;99.90;;;;;;4877268;29;20049;-77
2022/03/05 03:29:11;;;;;;;7.35;4.80;;;-0.90;99.90;;;;;;4864345;29;20302;-76
2022/03/05 03:31:38;;;;;;;7.05;4.40;;;-0.90;99.90;;;;;;4875183;29;20512;-77
2022/03/05 03:34:04;;;;;;;5.82;4.13;;;-0.90;99.90;;;;;;4875499;29;20122;-77
2022/03/05 03:36:29;;;;;;;7.45;4.70;;;-0.90;99.90;;;;;;4875137;29;20156;-78
2022/03/05 03:38:55;;;;;;;8.95;5.25;;;-0.90;99.90;;;;;;4875425;29;20049;-77
2022/03/05 03:41:21;;;;;;;7.10;5.00;;;-1.00;99.90;;;;;;4866407;29;20052;-77
2022/03/05 03:43:47;;;;;;;10.80;5.80;;;-1.00;99.90;;;;;;4860514;29;20353;-77
2022/03/05 03:46:12;;;;;;;9.02;4.97;;;-1.00;99.90;;;;;;4874941;29;20373;-77
2022/03/05 03:48:38;;;;;;;6.72;4.47;;;-1.00;99.90;;;;;;4859014;29;20055;-77
2022/03/05 03:51:04;;;;;;;5.00;3.70;;;-1.10;99.90;;;;;;4874885;29;20428;-78
2022/03/05 03:53:29;;;;;;;6.95;4.32;;;-1.10;99.90;;;;;;4875091;29;20127;-77
2022/03/05 03:55:55;;;;;;;5.37;3.30;;;-1.10;99.90;;;;;;4875363;29;20045;-78
2022/03/05 03:58:21;;;;;;;8.30;5.28;;;-1.20;99.90;;;;;;4874586;29;20293;-77
2022/03/05 04:00:46;;;;;;;6.32;4.10;;;-1.20;99.90;;;;;;4859380;29;20041;-78
2022/03/05 04:03:12;;;;;;;9.87;4.70;;;-1.10;99.90;;;;;;4871373;29;20128;-78
2022/03/05 04:05:38;;;;;;;7.72;4.72;;;-1.20;99.90;;;;;;4873823;29;20777;-78
2022/03/05 04:10:48;;;;;;;6.95;4.38;;;-1.20;99.90;;;;;;4861195;29;20369;-78
2022/03/05 04:13:14;;;;;;;6.57;4.47;;;-1.20;99.90;;;;;;4859263;29;20055;-77
2022/03/05 04:15:39;;;;;;;6.60;4.53;;;-1.30;99.90;;;;;;4886878;29;20304;-78
2022/03/05 04:18:06;;;;;;;7.57;5.30;;;-1.30;99.90;;;;;;4877854;29;20057;-78
2022/03/05 04:20:32;;;;;;;8.85;5.38;;;-1.30;99.90;;;;;;4882916;29;20053;-77
2022/03/05 04:22:58;;;;;;;7.47;5.05;;;-1.20;99.90;;;;;;4862987;29;20071;-77
2022/03/05 04:25:26;;;;;;;8.30;5.30;;;-1.20;99.90;;;;;;4878221;29;20041;-77
2022/03/05 04:27:51;;;;;;;6.93;4.72;;;-1.20;99.90;;;;;;4878319;29;20494;-77
2022/03/05 04:30:18;;;;;;;10.82;5.93;;;-1.20;99.90;;;;;;4862494;29;20037;-77
2022/03/05 04:32:43;;;;;;;8.25;5.20;;;-1.10;99.90;;;;;;4884729;29;20059;-76
2022/03/05 04:35:11;;;;;;;9.02;5.93;;;-1.20;99.90;;;;;;4879565;29;20099;-73
2022/03/05 04:37:37;;;;;;;9.93;5.78;;;-1.10;99.90;;;;;;4868723;29;20072;-73
2022/03/05 04:40:04;;;;;;;8.10;5.00;;;-1.10;99.90;;;;;;4846786;29;20054;-74
2022/03/05 04:42:30;;;;;;;7.35;4.38;;;-1.10;99.90;;;;;;4874565;29;20061;-74
2022/03/05 04:44:56;;;;;;;7.63;5.00;;;-1.10;99.90;;;;;;4860115;29;20044;-74
2022/03/05 04:47:21;;;;;;;6.38;4.30;;;-1.10;99.90;;;;;;4884603;29;20052;-74
2022/03/05 04:49:47;;;;;;;7.85;5.00;;;-1.10;99.90;;;;;;4877225;29;20041;-75
2022/03/05 04:52:13;;;;;;;8.80;4.72;;;-1.20;99.90;;;;;;4860636;29;20045;-75
2022/03/05 04:54:39;;;;;;;6.45;4.40;;;-1.20;99.90;;;;;;4877614;29;20112;-75
2022/03/05 04:57:04;;;;;;;8.23;4.70;;;-1.20;99.90;;;;;;4866298;29;20052;-75
2022/03/05 04:59:30;;;;;;;9.23;5.18;;;-1.20;99.90;;;;;;4883790;29;20045;-75
2022/03/05 05:01:56;;;;;;;7.07;4.60;;;-1.20;99.90;;;;;;4871782;29;20105;-75
2022/03/05 05:04:22;;;;;;;7.80;5.07;;;-1.20;99.90;;;;;;4877111;29;20051;-75
2022/03/05 05:06:48;;;;;;;9.02;5.43;;;-1.20;99.90;;;;;;4878555;29;20045;-75
2022/03/05 05:09:14;;;;;;;7.53;4.68;;;-1.20;99.90;;;;;;4877559;29;20080;-75
2022/03/05 05:11:41;;;;;;;7.90;5.25;;;-1.30;99.90;;;;;;4873717;29;20462;-75
2022/03/05 05:14:08;;;;;;;8.27;5.20;;;-1.30;99.90;;;;;;4877498;29;20087;-76
2022/03/05 05:16:34;;;;;;;;;;;-1.30;99.90;;;;;;4874526;29;20049;-75
2022/03/05 05:21:44;;;;;;;9.48;5.53;;;-1.30;99.90;;;;;;4871269;29;20057;-75
2022/03/05 05:24:10;;;;;;;6.32;3.95;;;-1.20;99.90;;;;;;4861569;29;20453;-75
2022/03/05 05:26:36;;;;;;;6.40;4.60;;;-1.20;99.90;;;;;;4860824;29;20045;-75
2022/03/05 05:29:02;;;;;;;8.57;5.00;;;-1.30;99.90;;;;;;4860880;29;20124;-75
2022/03/05 05:31:28;;;;;;;9.68;5.38;;;-1.30;99.90;;;;;;4874224;29;20456;-75
2022/03/05 05:33:54;;;;;;;8.52;5.07;;;-1.30;99.90;;;;;;4888133;29;20049;-74
2022/03/05 05:36:19;;;;;;;8.15;4.68;;;-1.30;99.90;;;;;;4860988;29;20056;-75
2022/03/05 05:38:45;;;;;;;9.15;5.00;;;-1.30;99.90;;;;;;4862330;29;20044;-74
2022/03/05 05:41:12;;;;;;;8.70;5.22;;;-1.30;99.90;;;;;;4874209;29;20128;-75
2022/03/05 05:43:38;;;;;;;7.07;4.60;;;-1.40;99.90;;;;;;4874622;29;20106;-74
2022/03/05 05:46:04;;;;;;;8.85;5.18;;;-1.40;99.90;;;;;;4876274;29;20085;-74
2022/03/05 05:48:29;;;;;;;7.90;4.82;;;-1.40;99.90;;;;;;4876564;29;20053;-74
2022/03/05 05:50:56;;;;;;;7.82;4.93;;;-1.40;99.90;;;;;;4873852;29;20398;-74
2022/03/05 05:53:23;;;;;;;7.95;4.63;;;-1.40;99.90;;;;;;4859323;29;20137;-75
2022/03/05 05:55:48;;;;;;;8.07;4.72;;;-1.40;99.90;;;;;;4862351;29;20111;-75
2022/03/05 05:58:14;;;;;;;9.27;4.65;;;-1.40;99.90;;;;;;4860669;29;20151;-74
2022/03/05 06:00:40;;;;;;;8.77;5.50;;;-1.40;99.90;;;;;;4877139;29;20044;-75
2022/03/05 06:03:06;;;;;;;9.02;5.00;;;-1.30;99.90;;;;;;4860649;29;20045;-75
2022/03/05 06:05:31;;;;;;;9.90;5.30;;;-1.30;99.90;;;;;;4875366;29;20105;-74
2022/03/05 06:07:57;;;;;;;8.23;4.70;;;-1.30;99.90;;;;;;4863730;29;20073;-73
2022/03/05 06:10:23;;;;;;;9.00;5.30;;;-1.30;99.90;;;;;;4874166;29;20290;-74
2022/03/05 06:12:49;;;;;;;8.70;5.20;;;-1.30;99.90;;;;;;4840446;29;20037;-74
2022/03/05 06:15:15;;;;;;;8.48;5.05;;;-1.20;99.90;;;;;;4867263;29;20068;-73
2022/03/05 06:17:44;;;;;;;8.68;5.53;;;-1.30;99.90;;;;;;4843175;29;20224;-74
2022/03/05 06:20:11;;;;;;;7.55;5.05;;;-1.20;99.90;;;;;;4860362;29;20052;-73
2022/03/05 06:22:38;;;;;;;7.13;4.68;;;-1.20;99.90;;;;;;4873579;29;20124;-74
2022/03/05 06:25:06;;;;;;;6.15;4.30;;;-1.20;99.90;;;;;;4861162;29;20048;-74
2022/03/05 06:27:32;;;;;;;10.52;5.85;;;-1.20;99.90;;;;;;4874915;29;20410;-74
2022/03/05 06:29:58;;;;;;;8.82;5.57;;;-1.20;99.90;;;;;;4839943;29;20045;-74
2022/03/05 06:32:24;;;;;;;9.45;5.20;;;-1.10;99.90;;;;;;4876177;29;20057;-75
2022/03/05 06:34:54;;;;;;;9.77;5.53;;;-1.10;99.90;;;;;;4843655;29;20124;-75
2022/03/05 06:37:20;;;;;;;9.25;5.57;;;-1.10;99.90;;;;;;4875438;29;20076;-73
2022/03/05 06:39:46;;;;;;;11.77;6.20;;;-1.00;99.90;;;;;;4860262;29;20071;-74
2022/03/05 06:42:12;;;;;;;8.18;5.75;;;-1.00;99.90;;;;;;4875300;29;20049;-74
2022/03/05 06:44:38;;;;;;;6.22;4.30;;;-1.00;99.90;;;;;;4874764;29;20049;-74
2022/03/05 06:47:04;;;;;;;9.65;6.00;;;-1.00;99.90;;;;;;4840489;29;20049;-75
2022/03/05 06:49:30;;;;;;;8.88;5.47;;;-0.90;99.90;;;;;;4875548;29;20041;-74
2022/03/05 06:51:56;;;;;;;10.40;6.28;;;-0.90;99.90;;;;;;4876445;29;20496;-75
2022/03/05 06:54:21;;;;;;;9.90;5.82;;;-0.90;99.90;;;;;;4878230;29;20433;-76
2022/03/05 06:56:47;;;;;;;9.70;6.13;;;-0.80;99.90;;;;;;4875465;29;20118;-75
2022/03/05 06:59:13;;;;;;;9.85;5.75;;;-0.80;99.90;;;;;;4874775;29;20302;-73
2022/03/05 07:01:39;;;;;;;9.00;5.40;;;-0.90;99.90;;;;;;4858884;29;20115;-73
2022/03/05 07:04:04;;;;;;;9.75;6.18;;;-0.80;99.90;;;;;;4874996;29;20189;-74
2022/03/05 07:06:30;;;;;;;10.20;6.10;;;-0.70;99.90;;;;;;4866161;29;20048;-74
2022/03/05 07:08:56;;;;;;;9.93;5.88;;;-0.70;99.90;;;;;;4875388;29;21565;-74
2022/03/05 07:11:21;;;;;;;8.88;5.75;;;-0.60;99.90;;;;;;4871112;29;20057;-74
2022/03/05 07:13:47;;;;;;;8.65;5.30;;;-0.60;99.90;;;;;;4873005;29;20044;-75
2022/03/05 07:16:13;;;;;;;10.65;6.35;;;-0.50;99.90;;;;;;4874374;29;20053;-74
2022/03/05 07:18:40;;;;;;;10.13;6.05;;;-0.50;99.90;;;;;;4856272;29;20063;-73
2022/03/05 07:21:06;;;;;;;10.35;5.97;;;-0.40;99.90;;;;;;4844656;29;20363;-73
2022/03/05 07:23:31;;;;;;;9.10;5.78;;;-0.30;99.90;;;;;;4843374;29;20120;-74
2022/03/05 07:25:57;;;;;;;10.43;6.03;;;-0.30;99.90;;;;;;4873485;29;20128;-74
2022/03/05 07:28:23;;;;;;;11.35;7.18;;;-0.30;99.90;;;;;;4874617;29;20560;-73
2022/03/05 07:30:49;;;;;;;9.20;6.40;;;-0.20;99.90;;;;;;4859430;29;20128;-78
2022/03/05 07:33:15;;;;;;;11.55;6.95;;;-0.10;99.90;;;;;;4874073;29;20426;-78
2022/03/05 07:35:41;;;;;;;9.52;6.30;;;0.00;99.90;;;;;;4873660;29;20193;-80
2022/03/05 07:38:07;;;;;;;12.23;6.72;;;0.00;99.90;;;;;;4875678;29;20037;-78
2022/03/05 07:40:33;;;;;;;9.93;6.70;;;0.10;99.90;;;;;;4879044;29;20491;-78
2022/03/05 07:42:59;;;;;;;11.43;7.25;;;0.20;99.90;;;;;;4875991;29;20049;-75
2022/03/05 07:45:25;;;;;;;15.05;6.80;;;0.40;99.90;;;;;;4879066;29;20048;-78
2022/03/05 07:47:50;;;;;;;11.52;7.07;;;0.50;99.90;;;;;;4883296;29;20047;-73
2022/03/05 07:50:16;;;;;;;12.35;7.72;;;0.70;99.90;;;;;;4858710;29;20397;-73
2022/03/05 07:52:42;;;;;;;10.85;6.65;;;0.80;99.90;;;;;;4865954;29;20131;-73
2022/03/05 07:55:08;;;;;;;11.82;7.72;;;1.00;99.90;;;;;;4874816;29;20056;-72
2022/03/05 07:57:34;;;;;;;13.05;8.00;;;1.10;99.90;;;;;;4868629;29;20049;-73
2022/03/05 08:00:00;;;;;;;9.93;6.82;;;1.20;99.90;;;;;;4866733;29;20075;-73
2022/03/05 08:02:25;;;;;;;13.57;7.80;;;1.30;99.90;;;;;;4878713;29;20045;-74
2022/03/05 08:04:51;;;;;;;11.60;7.40;;;1.40;99.90;;;;;;4863420;29;20318;-73
2022/03/05 08:07:17;;;;;;;11.33;7.47;;;1.50;99.90;;;;;;4874125;29;20277;-73
2022/03/05 08:09:43;;;;;;;13.27;7.65;;;1.70;99.90;;;;;;4875024;29;20298;-74
2022/03/05 08:12:10;;;;;;;11.93;7.68;;;1.80;99.90;;;;;;4880188;29;20045;-74
2022/03/05 08:14:37;;;;;;;14.02;7.43;;;1.90;99.90;;;;;;4874813;29;20046;-74
2022/03/05 08:17:03;;;;;;;10.25;7.22;;;2.00;99.90;;;;;;4866829;29;20557;-74
2022/03/05 08:19:29;;;;;;;10.55;7.10;;;2.10;99.90;;;;;;4853454;29;20037;-74
2022/03/05 08:21:54;;;;;;;11.83;7.80;;;2.20;99.90;;;;;;4872693;29;20071;-73
2022/03/05 08:24:20;;;;;;;10.18;6.70;;;2.20;99.90;;;;;;4852940;29;20388;-74
2022/03/05 08:26:46;;;;;;;10.43;7.43;;;2.20;99.90;;;;;;4859773;29;20135;-73
2022/03/05 08:29:11;;;;;;;10.83;7.07;;;2.20;99.90;;;;;;4874015;29;20145;-73
2022/03/05 08:31:37;;;;;;;10.00;6.60;;;2.20;99.90;;;;;;4858996;29;20085;-73
2022/03/05 08:34:03;;;;;;;9.97;7.00;;;2.20;99.90;;;;;;4840437;29;20848;-73
2022/03/05 08:36:29;;;;;;;12.73;7.32;;;2.20;99.90;;;;;;4858846;29;20100;-75
2022/03/05 08:38:55;;;;;;;10.80;7.28;;;2.10;99.90;;;;;;4874284;29;20144;-74
2022/03/05 08:41:21;;;;;;;11.13;7.32;;;2.20;99.90;;;;;;4873782;29;20097;-73
2022/03/05 08:43:47;;;;;;;13.07;7.70;;;2.20;99.90;;;;;;4858700;29;20385;-73
2022/03/05 08:46:12;;;;;;;13.27;7.22;;;2.20;99.90;;;;;;4856312;29;20093;-73
2022/03/05 08:48:38;;;;;;;12.20;7.63;;;2.30;99.90;;;;;;4872851;29;20181;-73
2022/03/05 08:51:04;;;;;;;12.60;8.20;;;2.30;99.90;;;;;;4855899;29;20056;-73
2022/03/05 08:53:30;;;;;;;10.57;7.30;;;2.30;99.90;;;;;;4873230;29;20047;-73
2022/03/05 08:55:56;;;;;;;14.00;8.03;;;2.40;99.90;;;;;;4860411;29;20057;-74
2022/03/05 08:58:22;;;;;;;14.00;8.15;;;2.30;99.90;;;;;;4852529;29;20718;-73
2022/03/05 09:00:49;;;;;;;12.00;7.50;;;2.40;99.90;;;;;;4876036;29;20414;-73
2022/03/05 09:03:16;;;;;;;11.68;7.60;;;2.50;99.90;;;;;;4876751;29;20124;-73
2022/03/05 09:05:42;;;;;;;12.35;7.78;;;2.50;99.90;;;;;;4875167;29;20482;-73
2022/03/05 09:08:08;;;;;;;13.32;7.68;;;2.60;99.90;;;;;;4863131;29;20132;-73
2022/03/05 09:10:34;;;;;;;12.93;8.02;;;2.70;99.90;;;;;;4866405;29;20064;-74
2022/03/05 09:13:00;;;;;;;12.48;8.07;;;2.70;99.90;;;;;;4864731;29;20052;-74
2022/03/05 09:15:26;;;;;;;24.40;16.67;;;2.80;99.90;;;;;;4878559;29;20061;-73
2022/03/05 09:17:53;;;;;;;14.80;8.70;;;2.80;99.90;;;;;;4858688;29;20120;-73
2022/03/05 09:20:19;;;;;;;16.13;9.57;;;2.80;99.90;;;;;;4874525;29;20064;-74
2022/03/05 09:22:44;;;;;;;15.57;9.52;;;3.00;99.90;;;;;;4868392;29;20044;-74
2022/03/05 09:25:11;;;;;;;14.80;8.63;;;3.00;99.90;;;;;;4876706;29;20045;-74
2022/03/05 09:27:37;;;;;;;14.52;9.02;;;3.10;99.90;;;;;;4872282;29;20037;-74
2022/03/05 09:30:05;;;;;;;14.15;8.93;;;3.20;99.90;;;;;;4876388;29;20069;-73
2022/03/05 09:32:30;;;;;;;16.20;9.60;;;3.30;99.90;;;;;;4876345;29;20045;-73
2022/03/05 09:35:00;;;;;;;15.65;8.90;;;3.30;99.90;;;;;;4841854;29;20057;-73
2022/03/05 09:37:31;;;;;;;15.70;9.30;;;3.40;99.90;;;;;;4859673;29;20049;-73
2022/03/05 09:39:57;;;;;;;16.83;9.88;;;3.40;99.90;;;;;;4878359;29;20036;-73
2022/03/05 09:42:24;;;;;;;17.95;10.23;;;3.40;99.90;;;;;;4863505;29;20048;-73
2022/03/05 09:44:49;;;;;;;;;;;3.50;99.90;;;;;;4873003;29;20089;-73
2022/03/05 09:47:15;;;;;;;17.73;9.02;;;3.50;99.90;;;;;;4872495;29;19920;-74
2022/03/05 09:49:41;;;;;;;17.45;9.82;;;3.40;99.90;;;;;;4881029;29;20045;-74
2022/03/05 09:52:08;;;;;;;13.98;8.90;;;3.50;99.90;;;;;;4875259;29;20052;-74
2022/03/05 09:54:35;;;;;;;15.90;9.55;;;3.60;99.90;;;;;;4861127;29;20044;-74
2022/03/05 09:57:00;;;;;;;;;;;3.60;99.90;;;;;;4875836;29;20360;-74
2022/03/05 09:59:26;;;;;;;15.98;9.25;;;3.70;99.90;;;;;;4872683;29;19924;-74
2022/03/05 10:01:52;;;;;;;15.27;9.52;;;3.80;99.90;;;;;;4860556;29;20082;-74
2022/03/05 10:04:23;;;;;;;18.08;10.40;;;3.80;99.90;;;;;;4863650;29;20508;-74
2022/03/05 10:07:13;;;;;;;16.65;10.05;;;3.90;99.90;;;;;;4875472;29;20132;-72
2022/03/05 10:09:40;;;;;;;14.20;9.40;;;3.90;99.90;;;;;;4875281;29;20520;-72
2022/03/05 10:12:25;;;;;;;16.65;10.32;;;3.80;99.90;;;;;;4873121;29;20049;-71
2022/03/05 10:15:11;;;;;;;18.95;10.35;;;3.70;99.90;;;;;;4874767;29;20048;-71
2022/03/05 10:17:58;;;;;;;17.80;10.43;;;3.80;99.90;;;;;;4855463;29;20041;-72
2022/03/05 10:20:30;;;;;;;18.25;10.40;;;3.90;99.90;;;;;;4875460;29;20041;-72
2022/03/05 10:23:07;;;;;;;18.27;10.88;;;4.00;99.90;;;;;;4859376;29;20056;-72
2022/03/05 10:25:42;;;;;;;19.08;11.27;;;4.10;99.90;;;;;;4876343;29;20407;-72
2022/03/05 10:28:09;;;;;;;15.35;10.15;;;4.10;99.90;;;;;;4876056;29;20166;-72
2022/03/05 10:30:37;;;;;;;19.05;10.80;;;4.20;99.90;;;;;;4860464;29;20088;-72
2022/03/05 10:33:06;;;;;;;19.15;10.25;;;4.20;99.90;;;;;;4868062;29;20542;-72
2022/03/05 10:35:35;;;;;;;16.13;10.75;;;4.30;99.90;;;;;;4872657;29;20066;-72
2022/03/05 10:38:01;;;;;;;16.80;10.52;;;4.40;99.90;;;;;;4875661;29;20080;-72
2022/03/05 10:40:27;;;;;;;17.33;10.40;;;4.50;99.90;;;;;;4876339;29;20037;-72
2022/03/05 10:42:53;;;;;;;16.80;10.45;;;4.60;99.90;;;;;;4874399;29;20148;-72
2022/03/05 10:45:19;;;;;;;19.17;10.93;;;4.70;99.90;;;;;;4873019;29;20431;-72
2022/03/05 10:47:47;;;;;;;19.08;10.88;;;4.70;99.90;;;;;;4858181;29;20131;-72
2022/03/05 10:50:18;;;;;;;19.40;10.73;;;4.80;99.90;;;;;;4872954;29;20420;-72
2022/03/05 10:52:49;;;;;;;21.88;10.00;;;5.00;99.90;;;;;;4872817;29;20576;-72
2022/03/05 10:55:24;;;;;;;18.75;9.98;;;5.30;99.90;;;;;;4872821;29;20061;-72
2022/03/05 10:58:17;;;;;;;18.27;10.57;;;5.60;99.90;;;;;;4874069;29;20454;-72
2022/03/05 11:00:46;;;;;;;18.60;10.63;;;5.80;99.90;;;;;;4869365;29;20061;-72
2022/03/05 11:03:14;;;;;;;16.88;10.45;;;6.10;99.90;;;;;;4857977;29;20129;-72
2022/03/05 11:05:39;;;;;;;14.93;9.55;;;6.40;99.90;;;;;;4875091;29;20477;-72
2022/03/05 11:08:06;;;;;;;16.73;10.02;;;6.60;99.90;;;;;;4859989;29;20041;-73
2022/03/05 11:10:32;;;;;;;15.90;10.00;;;6.60;99.90;;;;;;4859599;29;20085;-73
2022/03/05 11:13:02;;;;;;;14.15;9.60;;;6.80;99.90;;;;;;4874794;29;20084;-73
2022/03/05 11:15:29;;;;;;;16.50;10.40;;;7.00;99.90;;;;;;4872197;29;20116;-73
2022/03/05 11:17:58;;;;;;;16.63;10.70;;;7.10;99.90;;;;;;4857305;29;20056;-72
2022/03/05 11:20:25;;;;;;;14.15;9.02;;;7.00;99.90;;;;;;4872400;29;20112;-73
2022/03/05 11:22:51;;;;;;;17.02;10.55;;;7.20;99.90;;;;;;4871372;29;20053;-73
2022/03/05 11:25:22;;;;;;;;;;;7.30;99.90;;;;;;4867520;29;20040;-73
2022/03/05 11:28:04;;;;;;;17.05;10.05;;;7.50;99.90;;;;;;4871764;29;19930;-73
2022/03/05 11:30:41;;;;;;;17.35;10.70;;;7.60;98.90;;;;;;4869393;29;20049;-77
2022/03/05 11:33:11;;;;;;;16.98;10.70;;;7.70;98.50;;;;;;4874694;29;20045;-77
2022/03/05 11:35:43;;;;;;;20.42;11.85;;;7.70;97.40;;;;;;4872530;29;20521;-77
2022/03/05 11:38:36;;;;;;;19.40;11.55;;;7.80;97.20;;;;;;4873252;29;20053;-77
2022/03/05 11:41:20;;;;;;;20.65;11.70;;;7.70;96.20;;;;;;4872875;29;20053;-77
2022/03/05 11:43:47;;;;;;;20.63;12.45;;;7.90;96.60;;;;;;4867241;29;20052;-77
2022/03/05 11:46:24;;;;;;;21.83;13.23;;;8.10;97.00;;;;;;4873311;29;20056;-76
2022/03/05 11:49:19;;;;;;;29.42;17.48;;;8.30;96.90;;;;;;4871866;29;20082;-76
2022/03/05 11:51:54;;;;;;;23.58;14.68;;;8.40;95.60;;;;;;4849489;29;20064;-76
2022/03/05 11:54:21;;;;;;;18.35;12.20;;;8.40;95.50;;;;;;4874561;29;20117;-78
2022/03/05 11:57:14;;;;;;;19.17;11.55;;;8.20;95.60;;;;;;4859221;29;20064;-77
2022/03/05 12:00:03;;;;;;;17.15;11.38;;;8.20;95.60;;;;;;4877285;29;20102;-78
2022/03/05 12:02:54;;;;;;;15.80;11.05;;;8.00;95.50;;;;;;4866975;29;20116;-79
2022/03/05 12:05:38;;;;;;;16.45;11.55;;;8.10;95.70;;;;;;4873141;29;20092;-78
2022/03/05 12:08:08;;;;;;;18.45;12.40;;;8.10;95.50;;;;;;4874016;29;20124;-78
2022/03/05 12:10:34;;;;;;;19.10;12.82;;;8.10;95.50;;;;;;4874719;29;20047;-77
2022/03/05 12:13:01;;;;;;;;;;;8.20;95.60;;;;;;4856235;29;20053;-78
2022/03/05 12:15:32;;;;;;;16.35;11.40;;;8.20;95.70;;;;;;4859613;29;20011;-77
2022/03/05 12:18:00;;;;;;;15.80;11.45;;;8.40;95.60;;;;;;4859274;29;20045;-78
2022/03/05 12:20:29;;;;;;;18.38;12.80;;;8.50;95.20;;;;;;4859806;29;20056;-78
2022/03/05 12:22:58;;;;;;;23.15;12.95;;;8.60;95.30;;;;;;4858345;29;20053;-79
2022/03/05 12:25:26;;;;;;;17.33;10.88;;;8.50;94.80;;;;;;4859912;29;20125;-75
2022/03/05 12:27:53;;;;;;;17.20;11.80;;;8.70;95.50;;;;;;4874833;29;20093;-78
2022/03/05 12:30:22;;;;;;;17.85;11.32;;;8.70;94.70;;;;;;4864640;29;20126;-80
2022/03/05 12:32:48;;;;;;;15.02;11.00;;;8.60;94.50;;;;;;4862736;29;20092;-79
2022/03/05 12:35:17;;;;;;;16.02;11.15;;;8.80;95.20;;;;;;4875452;29;20092;-80
2022/03/05 12:37:43;;;;;;;17.02;11.27;;;8.70;94.30;;;;;;4877104;29;20093;-78
2022/03/05 12:40:11;;;;;;;20.38;13.45;;;8.70;94.60;;;;;;4873834;29;20471;-79
2022/03/05 12:42:43;;;;;;;21.42;12.93;;;8.80;94.80;;;;;;4876517;29;20408;-79
2022/03/05 12:45:27;;;;;;;18.60;12.98;;;8.90;93.70;;;;;;4860003;29;20419;-80
2022/03/05 12:47:54;;;;;;;21.45;14.00;;;9.00;93.80;;;;;;4855898;29;20359;-80
2022/03/05 12:50:25;;;;;;;20.40;13.63;;;9.00;93.40;;;;;;4862729;29;20132;-79
2022/03/05 12:53:19;;;;;;;19.00;12.15;;;9.00;93.30;;;;;;4863034;29;20091;-80